sensor_id;sensor_type;location;lat;lon;timestamp;P1;durP1;ratioP1;P2;durP2;ratioP2
19205;SDS011;59358;52.134;5.596;2023-09-07T00:01:36;15.30;;;13.70;;
19205;SDS011;59358;52.134;5.596;2023-09-07T00:04:04;16.30;;;14.13;;
19205;SDS011;59358;52.134;5.596;2023-09-07T00:06:31;16.17;;;13.75;;
19205;SDS011;59358;52.134;5.596;2023-09-07T00:08:59;16.33;;;14.30;;
19205;SDS011;59358;52.134;5.596;2023-09-07T00:11:26;16.77;;;14.88;;
19205;SDS011;59358;52.134;5.596;2023-09-07T00:13:53;19.45;;;14.73;;
19205;SDS011;59358;52.134;5.596;2023-09-07T00:16:20;15.48;;;13.88;;
19205;SDS011;59358;52.134;5.596;2023-09-07T00:18:46;17.83;;;14.07;;
19205;SDS011;59358;52.134;5.596;2023-09-07T00:21:15;17.13;;;12.88;;
19205;SDS011;59358;52.134;5.596;2023-09-07T00:23:42;15.10;;;13.52;;
19205;SDS011;59358;52.134;5.596;2023-09-07T00:26:09;16.10;;;14.48;;
19205;SDS011;59358;52.134;5.596;2023-09-07T00:28:37;15.23;;;13.57;;
19205;SDS011;59358;52.134;5.596;2023-09-07T00:31:04;16.27;;;14.30;;
19205;SDS011;59358;52.134;5.596;2023-09-07T00:33:31;14.30;;;12.90;;
19205;SDS011;59358;52.134;5.596;2023-09-07T00:35:58;17.65;;;13.90;;
19205;SDS011;59358;52.134;5.596;2023-09-07T00:38:28;14.85;;;12.70;;
19205;SDS011;59358;52.134;5.596;2023-09-07T00:40:55;16.67;;;14.45;;
19205;SDS011;59358;52.134;5.596;2023-09-07T00:43:22;14.10;;;12.63;;
19205;SDS011;59358;52.134;5.596;2023-09-07T00:45:49;14.10;;;12.70;;
19205;SDS011;59358;52.134;5.596;2023-09-07T00:48:16;16.63;;;14.82;;
19205;SDS011;59358;52.134;5.596;2023-09-07T00:50:43;16.48;;;14.77;;
19205;SDS011;59358;52.134;5.596;2023-09-07T00:53:10;17.67;;;14.18;;
19205;SDS011;59358;52.134;5.596;2023-09-07T00:55:38;14.90;;;13.50;;
19205;SDS011;59358;52.134;5.596;2023-09-07T00:58:05;16.80;;;14.27;;
19205;SDS011;59358;52.134;5.596;2023-09-07T01:00:33;16.10;;;14.07;;
19205;SDS011;59358;52.134;5.596;2023-09-07T01:03:00;19.38;;;14.88;;
19205;SDS011;59358;52.134;5.596;2023-09-07T01:05:29;15.80;;;14.30;;
19205;SDS011;59358;52.134;5.596;2023-09-07T01:08:03;15.93;;;14.23;;
19205;SDS011;59358;52.134;5.596;2023-09-07T01:10:36;18.23;;;15.43;;
19205;SDS011;59358;52.134;5.596;2023-09-07T01:13:04;15.43;;;13.82;;
19205;SDS011;59358;52.134;5.596;2023-09-07T01:15:31;15.95;;;14.27;;
19205;SDS011;59358;52.134;5.596;2023-09-07T01:17:58;15.70;;;14.18;;
19205;SDS011;59358;52.134;5.596;2023-09-07T01:20:25;15.85;;;14.10;;
19205;SDS011;59358;52.134;5.596;2023-09-07T01:22:54;15.77;;;13.82;;
19205;SDS011;59358;52.134;5.596;2023-09-07T01:25:21;15.55;;;13.95;;
19205;SDS011;59358;52.134;5.596;2023-09-07T01:27:48;17.75;;;15.77;;
19205;SDS011;59358;52.134;5.596;2023-09-07T01:30:16;18.63;;;14.98;;
19205;SDS011;59358;52.134;5.596;2023-09-07T01:32:44;17.85;;;15.25;;
19205;SDS011;59358;52.134;5.596;2023-09-07T01:35:11;15.55;;;13.95;;
19205;SDS011;59358;52.134;5.596;2023-09-07T01:37:41;16.33;;;14.40;;
19205;SDS011;59358;52.134;5.596;2023-09-07T01:40:10;17.65;;;15.40;;
19205;SDS011;59358;52.134;5.596;2023-09-07T01:42:37;15.43;;;13.93;;
19205;SDS011;59358;52.134;5.596;2023-09-07T01:45:04;15.52;;;13.95;;
19205;SDS011;59358;52.134;5.596;2023-09-07T01:47:31;19.40;;;16.00;;
19205;SDS011;59358;52.134;5.596;2023-09-07T01:49:58;18.98;;;16.25;;
19205;SDS011;59358;52.134;5.596;2023-09-07T01:52:25;16.83;;;15.02;;
19205;SDS011;59358;52.134;5.596;2023-09-07T01:54:52;18.45;;;16.55;;
19205;SDS011;59358;52.134;5.596;2023-09-07T01:57:20;17.92;;;16.05;;
19205;SDS011;59358;52.134;5.596;2023-09-07T01:59:47;19.00;;;16.45;;
19205;SDS011;59358;52.134;5.596;2023-09-07T02:02:14;21.27;;;17.33;;
19205;SDS011;59358;52.134;5.596;2023-09-07T02:04:41;17.35;;;15.50;;
19205;SDS011;59358;52.134;5.596;2023-09-07T02:07:11;19.08;;;16.00;;
19205;SDS011;59358;52.134;5.596;2023-09-07T02:09:38;17.20;;;15.10;;
19205;SDS011;59358;52.134;5.596;2023-09-07T02:12:05;18.13;;;16.08;;
19205;SDS011;59358;52.134;5.596;2023-09-07T02:14:33;22.08;;;17.92;;
19205;SDS011;59358;52.134;5.596;2023-09-07T02:17:00;18.75;;;16.67;;
19205;SDS011;59358;52.134;5.596;2023-09-07T02:19:27;17.25;;;15.55;;
19205;SDS011;59358;52.134;5.596;2023-09-07T02:21:53;17.38;;;15.50;;
19205;SDS011;59358;52.134;5.596;2023-09-07T02:24:20;17.75;;;15.85;;
19205;SDS011;59358;52.134;5.596;2023-09-07T02:26:47;19.42;;;17.33;;
19205;SDS011;59358;52.134;5.596;2023-09-07T02:29:14;18.52;;;15.65;;
19205;SDS011;59358;52.134;5.596;2023-09-07T02:31:42;19.25;;;15.30;;
19205;SDS011;59358;52.134;5.596;2023-09-07T02:34:09;17.00;;;15.20;;
19205;SDS011;59358;52.134;5.596;2023-09-07T02:36:36;17.77;;;14.65;;
19205;SDS011;59358;52.134;5.596;2023-09-07T02:39:02;17.17;;;14.43;;
19205;SDS011;59358;52.134;5.596;2023-09-07T02:41:30;18.23;;;16.33;;
19205;SDS011;59358;52.134;5.596;2023-09-07T02:43:57;18.52;;;16.50;;
19205;SDS011;59358;52.134;5.596;2023-09-07T02:46:24;18.50;;;16.63;;
19205;SDS011;59358;52.134;5.596;2023-09-07T02:48:52;17.63;;;15.73;;
19205;SDS011;59358;52.134;5.596;2023-09-07T02:51:22;17.35;;;15.00;;
19205;SDS011;59358;52.134;5.596;2023-09-07T02:53:49;16.27;;;14.50;;
19205;SDS011;59358;52.134;5.596;2023-09-07T02:56:15;15.32;;;13.77;;
19205;SDS011;59358;52.134;5.596;2023-09-07T02:58:42;19.85;;;15.95;;
19205;SDS011;59358;52.134;5.596;2023-09-07T03:01:10;17.27;;;14.43;;
19205;SDS011;59358;52.134;5.596;2023-09-07T03:03:38;17.50;;;14.30;;
19205;SDS011;59358;52.134;5.596;2023-09-07T03:06:11;17.35;;;15.50;;
19205;SDS011;59358;52.134;5.596;2023-09-07T03:08:39;17.02;;;14.45;;
19205;SDS011;59358;52.134;5.596;2023-09-07T03:11:06;17.63;;;14.40;;
19205;SDS011;59358;52.134;5.596;2023-09-07T03:13:34;18.02;;;15.35;;
19205;SDS011;59358;52.134;5.596;2023-09-07T03:16:02;15.68;;;13.38;;
19205;SDS011;59358;52.134;5.596;2023-09-07T03:18:30;16.90;;;15.05;;
19205;SDS011;59358;52.134;5.596;2023-09-07T03:20:58;20.02;;;15.52;;
19205;SDS011;59358;52.134;5.596;2023-09-07T03:23:28;17.92;;;16.13;;
19205;SDS011;59358;52.134;5.596;2023-09-07T03:25:55;17.13;;;15.15;;
19205;SDS011;59358;52.134;5.596;2023-09-07T03:28:22;16.90;;;15.18;;
19205;SDS011;59358;52.134;5.596;2023-09-07T03:30:50;17.88;;;14.32;;
19205;SDS011;59358;52.134;5.596;2023-09-07T03:33:17;18.95;;;15.80;;
19205;SDS011;59358;52.134;5.596;2023-09-07T03:35:44;17.83;;;15.38;;
19205;SDS011;59358;52.134;5.596;2023-09-07T03:38:10;20.13;;;16.08;;
19205;SDS011;59358;52.134;5.596;2023-09-07T03:40:39;19.75;;;16.00;;
19205;SDS011;59358;52.134;5.596;2023-09-07T03:43:05;19.67;;;15.75;;
19205;SDS011;59358;52.134;5.596;2023-09-07T03:45:32;18.52;;;16.13;;
19205;SDS011;59358;52.134;5.596;2023-09-07T03:47:59;19.38;;;15.55;;
19205;SDS011;59358;52.134;5.596;2023-09-07T03:50:26;17.58;;;15.68;;
19205;SDS011;59358;52.134;5.596;2023-09-07T03:52:52;22.02;;;15.38;;
19205;SDS011;59358;52.134;5.596;2023-09-07T03:55:19;18.98;;;16.17;;
19205;SDS011;59358;52.134;5.596;2023-09-07T03:57:47;18.60;;;16.50;;
19205;SDS011;59358;52.134;5.596;2023-09-07T04:00:14;18.02;;;15.40;;
19205;SDS011;59358;52.134;5.596;2023-09-07T04:02:43;22.02;;;17.05;;
19205;SDS011;59358;52.134;5.596;2023-09-07T04:05:10;22.98;;;17.85;;
19205;SDS011;59358;52.134;5.596;2023-09-07T04:07:37;23.08;;;16.42;;
19205;SDS011;59358;52.134;5.596;2023-09-07T04:10:04;20.10;;;16.20;;
19205;SDS011;59358;52.134;5.596;2023-09-07T04:12:32;23.65;;;16.70;;
19205;SDS011;59358;52.134;5.596;2023-09-07T04:15:01;23.88;;;17.15;;
19205;SDS011;59358;52.134;5.596;2023-09-07T04:17:28;19.52;;;17.45;;
19205;SDS011;59358;52.134;5.596;2023-09-07T04:19:57;20.70;;;18.58;;
19205;SDS011;59358;52.134;5.596;2023-09-07T04:22:24;28.42;;;19.83;;
19205;SDS011;59358;52.134;5.596;2023-09-07T04:24:51;21.63;;;19.25;;
19205;SDS011;59358;52.134;5.596;2023-09-07T04:27:18;33.17;;;23.63;;
19205;SDS011;59358;52.134;5.596;2023-09-07T04:29:45;28.58;;;21.83;;
19205;SDS011;59358;52.134;5.596;2023-09-07T04:32:13;29.08;;;20.70;;
19205;SDS011;59358;52.134;5.596;2023-09-07T04:34:40;23.05;;;20.60;;
19205;SDS011;59358;52.134;5.596;2023-09-07T04:37:07;27.95;;;22.33;;
19205;SDS011;59358;52.134;5.596;2023-09-07T04:39:33;26.02;;;21.02;;
19205;SDS011;59358;52.134;5.596;2023-09-07T04:42:00;23.35;;;20.30;;
19205;SDS011;59358;52.134;5.596;2023-09-07T04:44:27;25.90;;;20.77;;
19205;SDS011;59358;52.134;5.596;2023-09-07T04:46:54;27.45;;;20.73;;
19205;SDS011;59358;52.134;5.596;2023-09-07T04:49:23;25.77;;;20.33;;
19205;SDS011;59358;52.134;5.596;2023-09-07T04:51:52;27.45;;;20.48;;
19205;SDS011;59358;52.134;5.596;2023-09-07T04:54:19;26.88;;;19.08;;
19205;SDS011;59358;52.134;5.596;2023-09-07T04:56:46;24.05;;;19.83;;
19205;SDS011;59358;52.134;5.596;2023-09-07T04:59:13;26.90;;;20.88;;
19205;SDS011;59358;52.134;5.596;2023-09-07T05:01:40;27.85;;;20.40;;
19205;SDS011;59358;52.134;5.596;2023-09-07T05:04:07;30.15;;;23.38;;
19205;SDS011;59358;52.134;5.596;2023-09-07T05:06:35;30.75;;;21.23;;
19205;SDS011;59358;52.134;5.596;2023-09-07T05:09:03;30.75;;;21.30;;
19205;SDS011;59358;52.134;5.596;2023-09-07T05:11:30;28.25;;;22.40;;
19205;SDS011;59358;52.134;5.596;2023-09-07T05:13:59;36.72;;;21.77;;
19205;SDS011;59358;52.134;5.596;2023-09-07T05:16:26;31.23;;;20.80;;
19205;SDS011;59358;52.134;5.596;2023-09-07T05:18:53;32.03;;;24.40;;
19205;SDS011;59358;52.134;5.596;2023-09-07T05:21:20;31.75;;;22.85;;
19205;SDS011;59358;52.134;5.596;2023-09-07T05:23:48;34.42;;;23.20;;
19205;SDS011;59358;52.134;5.596;2023-09-07T05:26:20;45.53;;;28.25;;
19205;SDS011;59358;52.134;5.596;2023-09-07T05:28:47;36.97;;;25.75;;
19205;SDS011;59358;52.134;5.596;2023-09-07T05:31:14;33.35;;;25.20;;
19205;SDS011;59358;52.134;5.596;2023-09-07T05:33:40;32.35;;;25.05;;
19205;SDS011;59358;52.134;5.596;2023-09-07T05:36:07;36.65;;;26.20;;
19205;SDS011;59358;52.134;5.596;2023-09-07T05:38:34;29.40;;;24.15;;
19205;SDS011;59358;52.134;5.596;2023-09-07T05:41:03;35.83;;;23.55;;
19205;SDS011;59358;52.134;5.596;2023-09-07T05:43:30;32.38;;;24.73;;
19205;SDS011;59358;52.134;5.596;2023-09-07T05:45:56;27.95;;;23.25;;
19205;SDS011;59358;52.134;5.596;2023-09-07T05:48:23;29.60;;;22.65;;
19205;SDS011;59358;52.134;5.596;2023-09-07T05:50:50;27.98;;;23.17;;
19205;SDS011;59358;52.134;5.596;2023-09-07T05:53:18;30.80;;;23.27;;
19205;SDS011;59358;52.134;5.596;2023-09-07T05:55:45;30.60;;;24.80;;
19205;SDS011;59358;52.134;5.596;2023-09-07T05:58:13;26.80;;;21.75;;
19205;SDS011;59358;52.134;5.596;2023-09-07T06:00:40;27.23;;;22.92;;
19205;SDS011;59358;52.134;5.596;2023-09-07T06:03:07;28.60;;;22.05;;
19205;SDS011;59358;52.134;5.596;2023-09-07T06:05:35;30.00;;;23.25;;
19205;SDS011;59358;52.134;5.596;2023-09-07T06:08:04;27.33;;;22.95;;
19205;SDS011;59358;52.134;5.596;2023-09-07T06:10:32;33.28;;;22.45;;
19205;SDS011;59358;52.134;5.596;2023-09-07T06:12:59;32.28;;;22.80;;
19205;SDS011;59358;52.134;5.596;2023-09-07T06:15:28;38.08;;;21.02;;
19205;SDS011;59358;52.134;5.596;2023-09-07T06:17:55;29.88;;;20.90;;
19205;SDS011;59358;52.134;5.596;2023-09-07T06:20:22;30.42;;;21.42;;
19205;SDS011;59358;52.134;5.596;2023-09-07T06:22:49;24.42;;;19.45;;
19205;SDS011;59358;52.134;5.596;2023-09-07T06:25:16;27.45;;;19.08;;
19205;SDS011;59358;52.134;5.596;2023-09-07T06:27:43;30.08;;;20.08;;
19205;SDS011;59358;52.134;5.596;2023-09-07T06:30:10;31.83;;;18.75;;
19205;SDS011;59358;52.134;5.596;2023-09-07T06:32:38;33.50;;;17.27;;
19205;SDS011;59358;52.134;5.596;2023-09-07T06:35:07;32.58;;;18.05;;
19205;SDS011;59358;52.134;5.596;2023-09-07T06:37:35;25.67;;;18.00;;
19205;SDS011;59358;52.134;5.596;2023-09-07T06:40:05;20.63;;;16.30;;
19205;SDS011;59358;52.134;5.596;2023-09-07T06:42:33;18.42;;;15.80;;
19205;SDS011;59358;52.134;5.596;2023-09-07T06:45:00;30.27;;;16.27;;
19205;SDS011;59358;52.134;5.596;2023-09-07T06:47:27;17.65;;;14.15;;
19205;SDS011;59358;52.134;5.596;2023-09-07T06:49:56;16.45;;;14.38;;
19205;SDS011;59358;52.134;5.596;2023-09-07T06:52:23;15.73;;;14.10;;
19205;SDS011;59358;52.134;5.596;2023-09-07T06:54:50;16.45;;;14.43;;
19205;SDS011;59358;52.134;5.596;2023-09-07T06:57:18;18.80;;;14.00;;
19205;SDS011;59358;52.134;5.596;2023-09-07T06:59:45;17.80;;;13.95;;
19205;SDS011;59358;52.134;5.596;2023-09-07T07:02:11;15.88;;;13.68;;
19205;SDS011;59358;52.134;5.596;2023-09-07T07:04:38;18.20;;;14.20;;
19205;SDS011;59358;52.134;5.596;2023-09-07T07:07:06;20.00;;;13.85;;
19205;SDS011;59358;52.134;5.596;2023-09-07T07:09:33;16.80;;;13.38;;
19205;SDS011;59358;52.134;5.596;2023-09-07T07:12:01;15.57;;;13.13;;
19205;SDS011;59358;52.134;5.596;2023-09-07T07:14:29;14.70;;;12.02;;
19205;SDS011;59358;52.134;5.596;2023-09-07T07:16:56;17.10;;;12.63;;
19205;SDS011;59358;52.134;5.596;2023-09-07T07:19:22;13.43;;;11.45;;
19205;SDS011;59358;52.134;5.596;2023-09-07T07:21:50;15.10;;;11.45;;
19205;SDS011;59358;52.134;5.596;2023-09-07T07:24:18;14.32;;;11.60;;
19205;SDS011;59358;52.134;5.596;2023-09-07T07:26:45;15.85;;;11.50;;
19205;SDS011;59358;52.134;5.596;2023-09-07T07:29:12;13.15;;;11.40;;
19205;SDS011;59358;52.134;5.596;2023-09-07T07:31:39;15.45;;;11.70;;
19205;SDS011;59358;52.134;5.596;2023-09-07T07:34:06;17.77;;;11.15;;
19205;SDS011;59358;52.134;5.596;2023-09-07T07:36:33;14.57;;;12.52;;
19205;SDS011;59358;52.134;5.596;2023-09-07T07:39:00;13.65;;;10.52;;
19205;SDS011;59358;52.134;5.596;2023-09-07T07:41:28;12.63;;;9.60;;
19205;SDS011;59358;52.134;5.596;2023-09-07T07:43:55;13.63;;;11.10;;
19205;SDS011;59358;52.134;5.596;2023-09-07T07:46:22;26.27;;;12.23;;
19205;SDS011;59358;52.134;5.596;2023-09-07T07:48:49;29.27;;;13.35;;
19205;SDS011;59358;52.134;5.596;2023-09-07T07:51:15;30.20;;;12.52;;
19205;SDS011;59358;52.134;5.596;2023-09-07T07:53:42;18.33;;;10.93;;
19205;SDS011;59358;52.134;5.596;2023-09-07T07:56:14;14.35;;;10.50;;
19205;SDS011;59358;52.134;5.596;2023-09-07T07:58:42;14.40;;;9.85;;
19205;SDS011;59358;52.134;5.596;2023-09-07T08:01:14;15.10;;;9.80;;
19205;SDS011;59358;52.134;5.596;2023-09-07T08:03:41;11.25;;;9.63;;
19205;SDS011;59358;52.134;5.596;2023-09-07T08:06:08;11.90;;;8.98;;
19205;SDS011;59358;52.134;5.596;2023-09-07T08:08:38;26.27;;;9.88;;
19205;SDS011;59358;52.134;5.596;2023-09-07T08:11:05;15.80;;;8.88;;
19205;SDS011;59358;52.134;5.596;2023-09-07T08:13:34;14.25;;;8.85;;
19205;SDS011;59358;52.134;5.596;2023-09-07T08:16:03;15.40;;;9.45;;
19205;SDS011;59358;52.134;5.596;2023-09-07T08:18:32;13.70;;;8.73;;
19205;SDS011;59358;52.134;5.596;2023-09-07T08:20:59;21.73;;;9.82;;
19205;SDS011;59358;52.134;5.596;2023-09-07T08:23:27;10.88;;;8.27;;
19205;SDS011;59358;52.134;5.596;2023-09-07T08:25:54;13.30;;;8.55;;
19205;SDS011;59358;52.134;5.596;2023-09-07T08:28:20;9.20;;;8.20;;
19205;SDS011;59358;52.134;5.596;2023-09-07T08:30:48;14.93;;;9.27;;
19205;SDS011;59358;52.134;5.596;2023-09-07T08:33:19;12.07;;;8.73;;
19205;SDS011;59358;52.134;5.596;2023-09-07T08:35:51;11.45;;;8.15;;
19205;SDS011;59358;52.134;5.596;2023-09-07T08:38:18;13.25;;;8.50;;
19205;SDS011;59358;52.134;5.596;2023-09-07T08:40:47;20.20;;;8.48;;
19205;SDS011;59358;52.134;5.596;2023-09-07T08:43:14;13.88;;;7.03;;
19205;SDS011;59358;52.134;5.596;2023-09-07T08:45:45;14.52;;;7.72;;
19205;SDS011;59358;52.134;5.596;2023-09-07T08:48:16;16.88;;;7.35;;
19205;SDS011;59358;52.134;5.596;2023-09-07T08:50:46;15.80;;;7.60;;
19205;SDS011;59358;52.134;5.596;2023-09-07T08:53:17;11.88;;;7.32;;
19205;SDS011;59358;52.134;5.596;2023-09-07T08:55:45;7.75;;;5.63;;
19205;SDS011;59358;52.134;5.596;2023-09-07T08:58:12;10.80;;;5.88;;
19205;SDS011;59358;52.134;5.596;2023-09-07T09:00:39;7.60;;;4.60;;
19205;SDS011;59358;52.134;5.596;2023-09-07T09:03:08;6.18;;;5.32;;
19205;SDS011;59358;52.134;5.596;2023-09-07T09:05:35;5.75;;;4.63;;
19205;SDS011;59358;52.134;5.596;2023-09-07T09:08:07;11.30;;;5.38;;
19205;SDS011;59358;52.134;5.596;2023-09-07T09:10:37;10.48;;;4.95;;
19205;SDS011;59358;52.134;5.596;2023-09-07T09:13:04;4.93;;;4.40;;
19205;SDS011;59358;52.134;5.596;2023-09-07T09:15:31;7.68;;;4.65;;
19205;SDS011;59358;52.134;5.596;2023-09-07T09:17:58;10.27;;;4.55;;
19205;SDS011;59358;52.134;5.596;2023-09-07T09:20:37;6.28;;;4.22;;
19205;SDS011;59358;52.134;5.596;2023-09-07T09:23:04;5.88;;;4.15;;
19205;SDS011;59358;52.134;5.596;2023-09-07T09:25:33;8.18;;;4.10;;
19205;SDS011;59358;52.134;5.596;2023-09-07T09:28:00;9.05;;;4.07;;
19205;SDS011;59358;52.134;5.596;2023-09-07T09:30:27;5.78;;;3.60;;
19205;SDS011;59358;52.134;5.596;2023-09-07T09:32:54;14.30;;;4.63;;
19205;SDS011;59358;52.134;5.596;2023-09-07T09:35:21;11.25;;;4.03;;
19205;SDS011;59358;52.134;5.596;2023-09-07T09:37:49;18.38;;;4.95;;
19205;SDS011;59358;52.134;5.596;2023-09-07T09:40:16;19.10;;;5.18;;
19205;SDS011;59358;52.134;5.596;2023-09-07T09:42:45;12.45;;;5.30;;
19205;SDS011;59358;52.134;5.596;2023-09-07T09:45:12;10.40;;;4.22;;
19205;SDS011;59358;52.134;5.596;2023-09-07T09:47:40;7.93;;;3.78;;
19205;SDS011;59358;52.134;5.596;2023-09-07T09:50:08;6.53;;;3.95;;
19205;SDS011;59358;52.134;5.596;2023-09-07T09:52:40;4.28;;;3.75;;
19205;SDS011;59358;52.134;5.596;2023-09-07T09:55:07;6.45;;;3.80;;
19205;SDS011;59358;52.134;5.596;2023-09-07T09:57:38;4.10;;;3.65;;
19205;SDS011;59358;52.134;5.596;2023-09-07T10:00:07;8.65;;;4.10;;
19205;SDS011;59358;52.134;5.596;2023-09-07T10:02:47;6.57;;;3.67;;
19205;SDS011;59358;52.134;5.596;2023-09-07T10:05:16;5.57;;;3.92;;
19205;SDS011;59358;52.134;5.596;2023-09-07T10:07:44;7.28;;;4.07;;
19205;SDS011;59358;52.134;5.596;2023-09-07T10:10:14;6.40;;;3.58;;
19205;SDS011;59358;52.134;5.596;2023-09-07T10:12:44;5.22;;;3.47;;
19205;SDS011;59358;52.134;5.596;2023-09-07T10:15:21;6.53;;;4.15;;
19205;SDS011;59358;52.134;5.596;2023-09-07T10:17:49;26.25;;;6.65;;
19205;SDS011;59358;52.134;5.596;2023-09-07T10:20:18;9.23;;;4.55;;
19205;SDS011;59358;52.134;5.596;2023-09-07T10:22:48;9.68;;;4.30;;
19205;SDS011;59358;52.134;5.596;2023-09-07T10:25:19;7.60;;;3.80;;
19205;SDS011;59358;52.134;5.596;2023-09-07T10:27:47;7.43;;;4.15;;
19205;SDS011;59358;52.134;5.596;2023-09-07T10:30:14;7.50;;;4.05;;
19205;SDS011;59358;52.134;5.596;2023-09-07T10:32:45;7.55;;;3.88;;
19205;SDS011;59358;52.134;5.596;2023-09-07T10:35:13;7.00;;;4.25;;
19205;SDS011;59358;52.134;5.596;2023-09-07T10:37:41;7.88;;;3.92;;
19205;SDS011;59358;52.134;5.596;2023-09-07T10:40:11;15.75;;;4.82;;
19205;SDS011;59358;52.134;5.596;2023-09-07T10:42:41;10.13;;;4.20;;
19205;SDS011;59358;52.134;5.596;2023-09-07T10:45:08;16.27;;;5.30;;
19205;SDS011;59358;52.134;5.596;2023-09-07T10:47:39;5.45;;;3.58;;
19205;SDS011;59358;52.134;5.596;2023-09-07T10:50:09;19.67;;;4.32;;
19205;SDS011;59358;52.134;5.596;2023-09-07T10:52:37;8.10;;;3.92;;
19205;SDS011;59358;52.134;5.596;2023-09-07T10:55:06;11.55;;;4.55;;
19205;SDS011;59358;52.134;5.596;2023-09-07T10:57:40;9.45;;;4.05;;
19205;SDS011;59358;52.134;5.596;2023-09-07T11:00:09;35.78;;;6.45;;
19205;SDS011;59358;52.134;5.596;2023-09-07T11:02:37;8.45;;;4.25;;
19205;SDS011;59358;52.134;5.596;2023-09-07T11:05:04;9.30;;;3.80;;
19205;SDS011;59358;52.134;5.596;2023-09-07T11:07:33;9.38;;;4.97;;
19205;SDS011;59358;52.134;5.596;2023-09-07T11:10:01;9.63;;;4.10;;
19205;SDS011;59358;52.134;5.596;2023-09-07T11:12:29;10.63;;;5.07;;
19205;SDS011;59358;52.134;5.596;2023-09-07T11:14:56;31.35;;;7.30;;
19205;SDS011;59358;52.134;5.596;2023-09-07T11:17:27;24.35;;;7.28;;
19205;SDS011;59358;52.134;5.596;2023-09-07T11:19:53;10.55;;;4.20;;
19205;SDS011;59358;52.134;5.596;2023-09-07T11:22:20;13.63;;;5.03;;
19205;SDS011;59358;52.134;5.596;2023-09-07T11:24:49;23.10;;;5.53;;
19205;SDS011;59358;52.134;5.596;2023-09-07T11:27:16;11.77;;;4.20;;
19205;SDS011;59358;52.134;5.596;2023-09-07T11:29:50;9.52;;;4.38;;
19205;SDS011;59358;52.134;5.596;2023-09-07T11:32:18;8.77;;;3.72;;
19205;SDS011;59358;52.134;5.596;2023-09-07T11:34:47;8.90;;;4.20;;
19205;SDS011;59358;52.134;5.596;2023-09-07T11:37:15;24.02;;;5.40;;
19205;SDS011;59358;52.134;5.596;2023-09-07T11:39:42;9.38;;;4.60;;
19205;SDS011;59358;52.134;5.596;2023-09-07T11:42:10;17.02;;;5.15;;
19205;SDS011;59358;52.134;5.596;2023-09-07T11:44:36;4.97;;;3.55;;
19205;SDS011;59358;52.134;5.596;2023-09-07T11:47:03;7.63;;;3.83;;
19205;SDS011;59358;52.134;5.596;2023-09-07T11:49:30;8.93;;;4.00;;
19205;SDS011;59358;52.134;5.596;2023-09-07T11:51:58;15.57;;;4.90;;
19205;SDS011;59358;52.134;5.596;2023-09-07T11:54:25;17.73;;;5.07;;
19205;SDS011;59358;52.134;5.596;2023-09-07T11:56:52;12.32;;;4.75;;
19205;SDS011;59358;52.134;5.596;2023-09-07T11:59:20;18.10;;;5.57;;
19205;SDS011;59358;52.134;5.596;2023-09-07T12:01:47;9.82;;;4.18;;
19205;SDS011;59358;52.134;5.596;2023-09-07T12:04:14;5.30;;;4.35;;
19205;SDS011;59358;52.134;5.596;2023-09-07T12:06:41;4.38;;;3.72;;
19205;SDS011;59358;52.134;5.596;2023-09-07T12:09:08;9.15;;;4.47;;
19205;SDS011;59358;52.134;5.596;2023-09-07T12:11:35;5.18;;;4.15;;
19205;SDS011;59358;52.134;5.596;2023-09-07T12:14:02;8.13;;;4.32;;
19205;SDS011;59358;52.134;5.596;2023-09-07T12:16:31;9.75;;;4.60;;
19205;SDS011;59358;52.134;5.596;2023-09-07T12:18:58;7.90;;;4.05;;
19205;SDS011;59358;52.134;5.596;2023-09-07T12:21:25;29.50;;;6.25;;
19205;SDS011;59358;52.134;5.596;2023-09-07T12:23:52;15.75;;;4.90;;
19205;SDS011;59358;52.134;5.596;2023-09-07T12:26:19;5.47;;;3.80;;
19205;SDS011;59358;52.134;5.596;2023-09-07T12:28:46;7.38;;;4.00;;
19205;SDS011;59358;52.134;5.596;2023-09-07T12:31:13;5.55;;;4.28;;
19205;SDS011;59358;52.134;5.596;2023-09-07T12:33:41;3.90;;;3.50;;
19205;SDS011;59358;52.134;5.596;2023-09-07T12:36:08;7.20;;;3.60;;
19205;SDS011;59358;52.134;5.596;2023-09-07T12:38:36;10.38;;;4.15;;
19205;SDS011;59358;52.134;5.596;2023-09-07T12:41:03;6.20;;;3.50;;
19205;SDS011;59358;52.134;5.596;2023-09-07T12:43:30;4.95;;;3.25;;
19205;SDS011;59358;52.134;5.596;2023-09-07T12:45:58;5.05;;;3.58;;
19205;SDS011;59358;52.134;5.596;2023-09-07T12:48:25;3.67;;;3.20;;
19205;SDS011;59358;52.134;5.596;2023-09-07T12:50:53;7.18;;;3.90;;
19205;SDS011;59358;52.134;5.596;2023-09-07T12:53:20;4.65;;;3.47;;
19205;SDS011;59358;52.134;5.596;2023-09-07T12:55:50;8.30;;;4.20;;
19205;SDS011;59358;52.134;5.596;2023-09-07T12:58:17;10.15;;;4.35;;
19205;SDS011;59358;52.134;5.596;2023-09-07T13:00:45;8.45;;;4.18;;
19205;SDS011;59358;52.134;5.596;2023-09-07T13:03:13;7.90;;;3.80;;
19205;SDS011;59358;52.134;5.596;2023-09-07T13:05:39;7.00;;;3.47;;
19205;SDS011;59358;52.134;5.596;2023-09-07T13:08:08;4.65;;;3.30;;
19205;SDS011;59358;52.134;5.596;2023-09-07T13:10:34;12.60;;;4.03;;
19205;SDS011;59358;52.134;5.596;2023-09-07T13:13:01;7.82;;;3.67;;
19205;SDS011;59358;52.134;5.596;2023-09-07T13:15:28;4.70;;;3.90;;
19205;SDS011;59358;52.134;5.596;2023-09-07T13:17:55;11.73;;;4.28;;
19205;SDS011;59358;52.134;5.596;2023-09-07T13:20:22;16.95;;;5.47;;
19205;SDS011;59358;52.134;5.596;2023-09-07T13:22:49;10.73;;;4.00;;
19205;SDS011;59358;52.134;5.596;2023-09-07T13:25:18;11.93;;;4.50;;
19205;SDS011;59358;52.134;5.596;2023-09-07T13:27:45;6.13;;;3.80;;
19205;SDS011;59358;52.134;5.596;2023-09-07T13:30:12;11.02;;;4.90;;
19205;SDS011;59358;52.134;5.596;2023-09-07T13:32:39;6.55;;;4.50;;
19205;SDS011;59358;52.134;5.596;2023-09-07T13:35:06;5.50;;;3.65;;
19205;SDS011;59358;52.134;5.596;2023-09-07T13:37:33;4.07;;;3.55;;
19205;SDS011;59358;52.134;5.596;2023-09-07T13:40:00;6.60;;;3.67;;
19205;SDS011;59358;52.134;5.596;2023-09-07T13:42:30;4.63;;;3.50;;
19205;SDS011;59358;52.134;5.596;2023-09-07T13:44:56;8.45;;;3.90;;
19205;SDS011;59358;52.134;5.596;2023-09-07T13:47:23;5.45;;;3.67;;
19205;SDS011;59358;52.134;5.596;2023-09-07T13:49:50;7.32;;;4.03;;
19205;SDS011;59358;52.134;5.596;2023-09-07T13:52:17;4.40;;;3.88;;
19205;SDS011;59358;52.134;5.596;2023-09-07T13:54:44;7.45;;;3.78;;
19205;SDS011;59358;52.134;5.596;2023-09-07T13:57:11;6.97;;;4.03;;
19205;SDS011;59358;52.134;5.596;2023-09-07T13:59:39;7.05;;;4.07;;
19205;SDS011;59358;52.134;5.596;2023-09-07T14:02:06;15.82;;;4.72;;
19205;SDS011;59358;52.134;5.596;2023-09-07T14:04:32;14.95;;;4.50;;
19205;SDS011;59358;52.134;5.596;2023-09-07T14:06:59;6.43;;;3.78;;
19205;SDS011;59358;52.134;5.596;2023-09-07T14:09:26;10.07;;;3.95;;
19205;SDS011;59358;52.134;5.596;2023-09-07T14:11:53;5.15;;;3.88;;
19205;SDS011;59358;52.134;5.596;2023-09-07T14:14:20;4.57;;;3.63;;
19205;SDS011;59358;52.134;5.596;2023-09-07T14:16:49;4.80;;;3.90;;
19205;SDS011;59358;52.134;5.596;2023-09-07T14:19:20;11.25;;;4.93;;
19205;SDS011;59358;52.134;5.596;2023-09-07T14:21:47;6.32;;;3.80;;
19205;SDS011;59358;52.134;5.596;2023-09-07T14:24:14;6.40;;;4.15;;
19205;SDS011;59358;52.134;5.596;2023-09-07T14:26:40;4.35;;;3.90;;
19205;SDS011;59358;52.134;5.596;2023-09-07T14:29:07;6.95;;;5.22;;
19205;SDS011;59358;52.134;5.596;2023-09-07T14:31:34;5.82;;;3.65;;
19205;SDS011;59358;52.134;5.596;2023-09-07T14:34:02;4.07;;;3.53;;